createdAt,value
2019-03-31T00:00:38.052Z,88
2019-03-31T00:05:37.712Z,89
2019-03-31T00:10:37.516Z,89
2019-03-31T00:15:37.748Z,90
2019-03-31T00:20:37.404Z,90
2019-03-31T00:25:37.834Z,91
2019-03-31T00:30:38.229Z,91
2019-03-31T00:35:37.675Z,91
2019-03-31T00:40:38.217Z,91
2019-03-31T00:45:37.535Z,91
2019-03-31T00:50:37.971Z,91
2019-03-31T00:55:38.348Z,92
2019-03-31T01:00:37.791Z,92
2019-03-31T01:05:38.164Z,92
2019-03-31T01:10:37.942Z,92
2019-03-31T01:15:39.079Z,92
2019-03-31T01:20:37.999Z,92
2019-03-31T01:25:37.617Z,92
2019-03-31T01:30:37.954Z,92
2019-03-31T01:35:38.373Z,93
2019-03-31T01:40:37.716Z,93
2019-03-31T01:45:38.097Z,93
2019-03-31T01:50:38.093Z,93
2019-03-31T01:55:38.182Z,93
2019-03-31T02:00:37.614Z,93
2019-03-31T02:05:37.806Z,93
2019-03-31T02:10:37.559Z,93
2019-03-31T02:15:37.886Z,93
2019-03-31T02:20:38.232Z,93
2019-03-31T02:25:37.733Z,93
2019-03-31T02:30:38.262Z,93
2019-03-31T02:35:37.586Z,92
2019-03-31T02:40:38.136Z,92
2019-03-31T02:45:38.310Z,92
2019-03-31T02:50:37.843Z,92
2019-03-31T02:55:38.157Z,92
2019-03-31T03:00:38.471Z,92
2019-03-31T03:05:37.980Z,92
2019-03-31T03:10:37.855Z,92
2019-03-31T03:15:38.484Z,92
2019-03-31T03:20:37.806Z,92
2019-03-31T03:25:54.468Z,92
2019-03-31T03:30:38.471Z,92
2019-03-31T03:35:37.846Z,92
2019-03-31T03:40:38.375Z,92
2019-03-31T03:45:37.640Z,92
2019-03-31T03:50:38.247Z,92
2019-03-31T03:55:37.666Z,92
2019-03-31T04:00:38.149Z,92
2019-03-31T04:05:37.717Z,93
2019-03-31T04:10:38.121Z,93
2019-03-31T04:15:38.489Z,93
2019-03-31T04:20:39.521Z,93
2019-03-31T04:25:38.218Z,93
2019-03-31T04:30:38.663Z,93
2019-03-31T04:35:38.285Z,93
2019-03-31T04:40:37.894Z,93
2019-03-31T04:45:38.139Z,93
2019-03-31T04:50:37.940Z,93
2019-03-31T04:55:37.846Z,93
2019-03-31T05:00:38.211Z,93
2019-03-31T05:05:38.297Z,93
2019-03-31T05:10:37.725Z,93
2019-03-31T05:15:37.921Z,92
2019-03-31T05:20:38.374Z,92
2019-03-31T05:25:37.703Z,92
2019-03-31T05:30:38.117Z,92
2019-03-31T05:35:38.421Z,91
2019-03-31T05:40:37.752Z,91
2019-03-31T05:45:37.972Z,90
2019-03-31T05:50:38.469Z,90
2019-03-31T05:55:37.812Z,90
2019-03-31T06:00:38.220Z,90
2019-03-31T06:05:38.665Z,89
2019-03-31T06:10:37.921Z,89
2019-03-31T06:15:38.649Z,89
2019-03-31T06:20:37.970Z,89
2019-03-31T06:25:38.180Z,89
2019-03-31T06:30:38.604Z,89
2019-03-31T06:35:38.143Z,89
2019-03-31T06:40:38.539Z,89
2019-03-31T06:45:38.828Z,89
2019-03-31T06:50:38.067Z,89
2019-03-31T06:55:38.662Z,89
2019-03-31T07:00:38.006Z,89
2019-03-31T07:05:38.354Z,87
2019-03-31T07:10:38.023Z,87
2019-03-31T07:15:38.277Z,86
2019-03-31T07:20:38.704Z,86
2019-03-31T07:25:37.912Z,83
2019-03-31T07:30:38.177Z,83
2019-03-31T07:35:39.071Z,78
2019-03-31T07:40:38.688Z,78
2019-03-31T07:45:38.142Z,77
2019-03-31T07:50:38.618Z,77
2019-03-31T07:55:37.822Z,75
2019-03-31T08:00:38.143Z,75
2019-03-31T08:05:38.587Z,74
2019-03-31T08:10:37.987Z,74
2019-03-31T08:15:38.669Z,73
2019-03-31T08:20:37.957Z,73
2019-03-31T08:25:38.192Z,72
2019-03-31T08:30:38.664Z,72
2019-03-31T08:35:47.179Z,69
2019-03-31T08:40:38.016Z,69
2019-03-31T08:45:38.131Z,68
2019-03-31T08:50:38.626Z,68
2019-03-31T08:55:38.161Z,69
2019-03-31T09:00:38.405Z,69
2019-03-31T09:05:38.051Z,66
2019-03-31T09:10:38.397Z,66
2019-03-31T09:15:38.689Z,61
2019-03-31T09:20:38.185Z,61
2019-03-31T09:25:38.442Z,60
2019-03-31T09:30:38.859Z,60
2019-03-31T09:35:38.480Z,58
2019-03-31T09:40:38.810Z,58
2019-03-31T09:45:38.065Z,54
2019-03-31T09:50:38.436Z,54
2019-03-31T09:55:38.895Z,53
2019-03-31T10:00:38.223Z,53
2019-03-31T10:05:38.670Z,52
2019-03-31T10:10:38.582Z,52
2019-03-31T10:15:38.903Z,51
2019-03-31T10:20:38.249Z,51
2019-03-31T10:25:38.722Z,50
2019-03-31T10:30:38.058Z,50
2019-03-31T10:35:39.054Z,50
2019-03-31T10:40:38.416Z,50
2019-03-31T10:45:38.769Z,52
2019-03-31T10:50:38.330Z,52
2019-03-31T10:55:38.887Z,52
2019-03-31T11:00:38.102Z,52
2019-03-31T11:05:38.435Z,52
2019-03-31T11:10:38.804Z,52
2019-03-31T11:15:38.090Z,53
2019-03-31T11:20:38.435Z,53
2019-03-31T11:25:38.860Z,49
2019-03-31T11:30:38.993Z,49
2019-03-31T11:35:38.566Z,49
2019-03-31T11:40:38.977Z,49
2019-03-31T11:45:38.106Z,47
2019-03-31T11:50:38.537Z,47
2019-03-31T11:55:39.006Z,49
2019-03-31T12:00:38.232Z,49
2019-03-31T12:05:38.735Z,50
2019-03-31T12:10:38.789Z,50
2019-03-31T12:15:39.091Z,48
2019-03-31T12:20:38.552Z,48
2019-03-31T12:25:38.926Z,49
2019-03-31T12:30:38.288Z,49
2019-03-31T12:35:38.755Z,49
2019-03-31T12:40:39.007Z,49
2019-03-31T12:45:38.192Z,45
2019-03-31T12:50:38.548Z,45
2019-03-31T12:55:38.811Z,46
2019-03-31T13:00:39.092Z,46
2019-03-31T13:05:38.503Z,44
2019-03-31T13:10:39.279Z,44
2019-03-31T13:15:38.270Z,43
2019-03-31T13:20:38.536Z,43
2019-03-31T13:25:38.867Z,42
2019-03-31T13:30:38.285Z,42
2019-03-31T13:35:38.977Z,42
2019-03-31T13:40:38.304Z,42
2019-03-31T13:45:38.585Z,43
2019-03-31T13:50:39.185Z,43
2019-03-31T13:55:39.014Z,44
2019-03-31T14:00:38.352Z,44
2019-03-31T14:05:38.644Z,44
2019-03-31T14:10:39.237Z,44
2019-03-31T14:15:38.774Z,43
2019-03-31T14:20:39.113Z,43
2019-03-31T14:25:38.377Z,42
2019-03-31T14:30:38.674Z,42
2019-03-31T14:35:38.857Z,42
2019-03-31T14:40:39.255Z,42
2019-03-31T14:45:38.518Z,41
2019-03-31T14:50:38.907Z,41
2019-03-31T14:55:39.235Z,41
2019-03-31T15:00:38.559Z,41
2019-03-31T15:05:38.858Z,40
2019-03-31T15:10:38.404Z,40
2019-03-31T15:15:38.655Z,41
2019-03-31T15:20:39.055Z,41
2019-03-31T15:25:39.058Z,41
2019-03-31T15:30:39.323Z,41
2019-03-31T15:35:38.687Z,42
2019-03-31T15:40:39.118Z,42
2019-03-31T15:45:38.414Z,42
2019-03-31T15:50:38.719Z,42
2019-03-31T15:55:38.389Z,40
2019-03-31T16:00:38.641Z,40
2019-03-31T16:05:38.967Z,41
2019-03-31T16:10:38.468Z,41
2019-03-31T16:15:38.479Z,42
2019-03-31T16:20:38.881Z,42
2019-03-31T16:25:39.337Z,41
2019-03-31T16:30:38.681Z,41
2019-03-31T16:35:39.127Z,41
2019-03-31T16:40:38.455Z,41
2019-03-31T16:45:38.770Z,42
2019-03-31T16:50:39.038Z,42
2019-03-31T16:55:39.367Z,45
2019-03-31T17:00:38.606Z,45
2019-03-31T17:05:39.107Z,46
2019-03-31T17:10:38.817Z,46
2019-03-31T17:15:39.138Z,47
2019-03-31T17:20:39.496Z,47
2019-03-31T17:25:38.659Z,48
2019-03-31T17:30:38.922Z,48
2019-03-31T17:35:38.722Z,48
2019-03-31T17:40:39.008Z,48
2019-03-31T17:45:39.303Z,50
2019-03-31T17:50:38.689Z,50
2019-03-31T17:55:38.974Z,51
2019-03-31T18:00:39.414Z,51
2019-03-31T18:05:39.391Z,52
2019-03-31T18:10:38.772Z,52
2019-03-31T18:15:39.149Z,53
2019-03-31T18:20:38.873Z,53
2019-03-31T18:25:39.177Z,54
2019-03-31T18:30:39.542Z,54
2019-03-31T18:35:38.957Z,55
2019-03-31T18:40:39.349Z,55
2019-03-31T18:45:38.593Z,56
2019-03-31T18:50:38.999Z,56
2019-03-31T18:55:39.174Z,57
2019-03-31T19:00:39.419Z,57
2019-03-31T19:05:38.903Z,58
2019-03-31T19:10:49.213Z,58
2019-03-31T19:15:39.181Z,59
2019-03-31T19:20:39.561Z,59
2019-03-31T19:25:38.867Z,60
2019-03-31T19:30:39.209Z,60
2019-03-31T19:35:39.605Z,61
2019-03-31T19:40:41.415Z,61
2019-03-31T19:45:38.842Z,63
2019-03-31T19:50:39.114Z,63
2019-03-31T19:55:39.556Z,64
2019-03-31T20:00:38.956Z,64
2019-03-31T20:05:39.231Z,65
2019-03-31T20:10:38.802Z,65
2019-03-31T20:15:39.125Z,67
2019-03-31T20:20:39.626Z,67
2019-03-31T20:25:38.857Z,68
2019-03-31T20:30:39.200Z,68
2019-03-31T20:35:39.646Z,69
2019-03-31T20:40:38.924Z,69
2019-03-31T20:45:39.143Z,70
2019-03-31T20:50:39.582Z,70
2019-03-31T20:55:38.760Z,70
2019-03-31T21:00:39.005Z,70
2019-03-31T21:05:39.482Z,70
2019-03-31T21:10:39.218Z,70
2019-03-31T21:15:39.761Z,71
2019-03-31T21:20:39.206Z,71
2019-03-31T21:25:39.672Z,73
2019-03-31T21:30:38.911Z,73
2019-03-31T21:35:39.277Z,73
2019-03-31T21:40:39.642Z,73
2019-03-31T21:45:38.936Z,73
2019-03-31T21:50:39.433Z,73
2019-03-31T21:55:39.433Z,74
2019-03-31T22:00:39.735Z,74
2019-03-31T22:05:39.275Z,75
2019-03-31T22:10:38.919Z,75
2019-03-31T22:15:39.759Z,76
2019-03-31T22:20:39.162Z,76
2019-03-31T22:25:39.432Z,77
2019-03-31T22:30:39.858Z,77
2019-03-31T22:35:39.336Z,78
2019-03-31T22:40:39.664Z,78
2019-03-31T22:45:39.737Z,78
2019-03-31T22:50:39.196Z,78
2019-03-31T22:55:39.507Z,80
2019-03-31T23:00:39.581Z,80
2019-03-31T23:05:39.199Z,80
2019-03-31T23:10:39.691Z,80
2019-03-31T23:15:39.919Z,80
2019-03-31T23:20:39.108Z,80
2019-03-31T23:25:39.436Z,80
2019-03-31T23:30:39.845Z,80
2019-03-31T23:35:39.194Z,82
2019-03-31T23:40:39.572Z,82
2019-03-31T23:45:39.892Z,82
2019-03-31T23:50:39.358Z,82
2019-03-31T23:55:39.509Z,83
